sensor_id;sensor_type;location;lat;lon;timestamp;P1;durP1;ratioP1;P2;durP2;ratioP2
12756;SDS011;31601;48.042;12.240;2022-12-07T00:01:05;14.53;;;10.90;;
12756;SDS011;31601;48.042;12.240;2022-12-07T00:03:34;15.83;;;11.73;;
12756;SDS011;31601;48.042;12.240;2022-12-07T00:06:03;17.33;;;12.27;;
12756;SDS011;31601;48.042;12.240;2022-12-07T00:08:32;15.93;;;12.67;;
12756;SDS011;31601;48.042;12.240;2022-12-07T00:11:02;16.07;;;10.87;;
12756;SDS011;31601;48.042;12.240;2022-12-07T00:13:30;16.80;;;10.93;;
12756;SDS011;31601;48.042;12.240;2022-12-07T00:16:01;14.77;;;11.67;;
12756;SDS011;31601;48.042;12.240;2022-12-07T00:18:30;16.77;;;12.43;;
12756;SDS011;31601;48.042;12.240;2022-12-07T00:21:00;17.77;;;12.50;;
12756;SDS011;31601;48.042;12.240;2022-12-07T00:23:30;15.47;;;11.60;;
12756;SDS011;31601;48.042;12.240;2022-12-07T00:26:02;17.33;;;12.13;;
12756;SDS011;31601;48.042;12.240;2022-12-07T00:28:30;15.53;;;11.50;;
12756;SDS011;31601;48.042;12.240;2022-12-07T00:31:02;15.90;;;12.10;;
12756;SDS011;31601;48.042;12.240;2022-12-07T00:33:31;15.33;;;12.10;;
12756;SDS011;31601;48.042;12.240;2022-12-07T00:35:58;14.60;;;10.93;;
12756;SDS011;31601;48.042;12.240;2022-12-07T00:38:27;14.63;;;11.47;;
12756;SDS011;31601;48.042;12.240;2022-12-07T00:40:56;13.63;;;10.87;;
12756;SDS011;31601;48.042;12.240;2022-12-07T00:43:23;15.90;;;12.13;;
12756;SDS011;31601;48.042;12.240;2022-12-07T00:45:50;14.50;;;11.30;;
12756;SDS011;31601;48.042;12.240;2022-12-07T00:48:19;14.50;;;11.03;;
12756;SDS011;31601;48.042;12.240;2022-12-07T00:50:45;14.17;;;10.40;;
12756;SDS011;31601;48.042;12.240;2022-12-07T00:53:12;13.77;;;10.50;;
12756;SDS011;31601;48.042;12.240;2022-12-07T00:55:41;12.93;;;10.63;;
12756;SDS011;31601;48.042;12.240;2022-12-07T00:58:08;14.03;;;11.07;;
12756;SDS011;31601;48.042;12.240;2022-12-07T01:00:37;13.87;;;11.10;;
12756;SDS011;31601;48.042;12.240;2022-12-07T01:03:04;13.13;;;10.63;;
12756;SDS011;31601;48.042;12.240;2022-12-07T01:05:33;13.60;;;10.03;;
12756;SDS011;31601;48.042;12.240;2022-12-07T01:08:00;12.73;;;10.03;;
12756;SDS011;31601;48.042;12.240;2022-12-07T01:10:28;11.77;;;9.57;;
12756;SDS011;31601;48.042;12.240;2022-12-07T01:12:56;11.07;;;9.00;;
12756;SDS011;31601;48.042;12.240;2022-12-07T01:15:24;11.57;;;9.13;;
12756;SDS011;31601;48.042;12.240;2022-12-07T01:17:51;11.67;;;9.17;;
12756;SDS011;31601;48.042;12.240;2022-12-07T01:20:19;10.67;;;8.70;;
12756;SDS011;31601;48.042;12.240;2022-12-07T01:22:48;9.80;;;8.57;;
12756;SDS011;31601;48.042;12.240;2022-12-07T01:25:15;9.60;;;8.00;;
12756;SDS011;31601;48.042;12.240;2022-12-07T01:27:43;10.37;;;8.90;;
12756;SDS011;31601;48.042;12.240;2022-12-07T01:30:12;10.27;;;8.50;;
12756;SDS011;31601;48.042;12.240;2022-12-07T01:32:39;9.50;;;8.00;;
12756;SDS011;31601;48.042;12.240;2022-12-07T01:35:06;9.63;;;7.67;;
12756;SDS011;31601;48.042;12.240;2022-12-07T01:37:35;11.07;;;9.03;;
12756;SDS011;31601;48.042;12.240;2022-12-07T01:40:05;9.83;;;7.90;;
12756;SDS011;31601;48.042;12.240;2022-12-07T01:42:33;9.33;;;7.87;;
12756;SDS011;31601;48.042;12.240;2022-12-07T01:48:04;9.60;;;8.00;;
12756;SDS011;31601;48.042;12.240;2022-12-07T01:50:34;11.00;;;8.40;;
12756;SDS011;31601;48.042;12.240;2022-12-07T01:53:02;11.07;;;8.43;;
12756;SDS011;31601;48.042;12.240;2022-12-07T01:55:35;10.40;;;8.60;;
12756;SDS011;31601;48.042;12.240;2022-12-07T01:58:05;10.17;;;8.40;;
12756;SDS011;31601;48.042;12.240;2022-12-07T02:00:32;10.50;;;9.00;;
12756;SDS011;31601;48.042;12.240;2022-12-07T02:03:00;9.83;;;7.97;;
12756;SDS011;31601;48.042;12.240;2022-12-07T02:05:30;10.77;;;9.00;;
12756;SDS011;31601;48.042;12.240;2022-12-07T02:07:58;10.03;;;8.37;;
12756;SDS011;31601;48.042;12.240;2022-12-07T02:10:26;11.67;;;8.60;;
12756;SDS011;31601;48.042;12.240;2022-12-07T02:12:57;9.97;;;8.00;;
12756;SDS011;31601;48.042;12.240;2022-12-07T02:15:28;10.23;;;8.53;;
12756;SDS011;31601;48.042;12.240;2022-12-07T02:18:09;11.37;;;8.70;;
12756;SDS011;31601;48.042;12.240;2022-12-07T02:20:43;9.87;;;8.43;;
12756;SDS011;31601;48.042;12.240;2022-12-07T02:23:29;12.03;;;8.70;;
12756;SDS011;31601;48.042;12.240;2022-12-07T02:26:12;11.13;;;8.60;;
12756;SDS011;31601;48.042;12.240;2022-12-07T02:28:56;11.37;;;8.57;;
12756;SDS011;31601;48.042;12.240;2022-12-07T02:31:37;10.10;;;8.13;;
12756;SDS011;31601;48.042;12.240;2022-12-07T02:34:11;11.07;;;8.73;;
12756;SDS011;31601;48.042;12.240;2022-12-07T02:36:46;12.07;;;8.97;;
12756;SDS011;31601;48.042;12.240;2022-12-07T02:39:19;11.63;;;9.27;;
12756;SDS011;31601;48.042;12.240;2022-12-07T02:41:52;12.27;;;8.97;;
12756;SDS011;31601;48.042;12.240;2022-12-07T02:44:24;9.90;;;8.60;;
12756;SDS011;31601;48.042;12.240;2022-12-07T02:46:55;10.70;;;9.27;;
12756;SDS011;31601;48.042;12.240;2022-12-07T02:49:26;11.63;;;9.17;;
12756;SDS011;31601;48.042;12.240;2022-12-07T02:51:55;10.50;;;8.47;;
12756;SDS011;31601;48.042;12.240;2022-12-07T02:54:21;10.40;;;8.67;;
12756;SDS011;31601;48.042;12.240;2022-12-07T02:56:49;11.03;;;9.10;;
12756;SDS011;31601;48.042;12.240;2022-12-07T02:59:28;10.40;;;8.40;;
12756;SDS011;31601;48.042;12.240;2022-12-07T03:02:06;10.40;;;8.47;;
12756;SDS011;31601;48.042;12.240;2022-12-07T03:04:45;10.27;;;8.77;;
12756;SDS011;31601;48.042;12.240;2022-12-07T03:07:25;10.13;;;8.80;;
12756;SDS011;31601;48.042;12.240;2022-12-07T03:10:00;12.20;;;9.03;;
12756;SDS011;31601;48.042;12.240;2022-12-07T03:12:37;10.73;;;8.73;;
12756;SDS011;31601;48.042;12.240;2022-12-07T03:15:14;11.07;;;8.77;;
12756;SDS011;31601;48.042;12.240;2022-12-07T03:17:48;10.50;;;8.23;;
12756;SDS011;31601;48.042;12.240;2022-12-07T03:20:17;10.80;;;8.60;;
12756;SDS011;31601;48.042;12.240;2022-12-07T03:22:47;11.27;;;8.77;;
12756;SDS011;31601;48.042;12.240;2022-12-07T03:25:16;15.20;;;9.57;;
12756;SDS011;31601;48.042;12.240;2022-12-07T03:27:44;10.77;;;9.20;;
12756;SDS011;31601;48.042;12.240;2022-12-07T03:30:19;12.93;;;9.63;;
12756;SDS011;31601;48.042;12.240;2022-12-07T03:32:49;12.60;;;9.50;;
12756;SDS011;31601;48.042;12.240;2022-12-07T03:35:22;14.30;;;9.83;;
12756;SDS011;31601;48.042;12.240;2022-12-07T03:37:53;13.13;;;9.90;;
12756;SDS011;31601;48.042;12.240;2022-12-07T03:40:25;11.60;;;8.83;;
12756;SDS011;31601;48.042;12.240;2022-12-07T03:42:57;13.33;;;10.27;;
12756;SDS011;31601;48.042;12.240;2022-12-07T03:45:29;13.07;;;10.40;;
12756;SDS011;31601;48.042;12.240;2022-12-07T03:48:02;12.50;;;9.57;;
12756;SDS011;31601;48.042;12.240;2022-12-07T03:50:34;11.23;;;9.10;;
12756;SDS011;31601;48.042;12.240;2022-12-07T03:53:09;12.03;;;10.00;;
12756;SDS011;31601;48.042;12.240;2022-12-07T03:55:40;11.43;;;9.63;;
12756;SDS011;31601;48.042;12.240;2022-12-07T03:58:10;11.93;;;9.33;;
12756;SDS011;31601;48.042;12.240;2022-12-07T04:00:42;14.03;;;10.37;;
12756;SDS011;31601;48.042;12.240;2022-12-07T04:03:10;15.37;;;10.07;;
12756;SDS011;31601;48.042;12.240;2022-12-07T04:05:37;13.57;;;10.47;;
12756;SDS011;31601;48.042;12.240;2022-12-07T04:08:05;11.10;;;8.77;;
12756;SDS011;31601;48.042;12.240;2022-12-07T04:10:32;12.10;;;10.20;;
12756;SDS011;31601;48.042;12.240;2022-12-07T04:12:59;12.33;;;9.80;;
12756;SDS011;31601;48.042;12.240;2022-12-07T04:15:27;14.03;;;11.00;;
12756;SDS011;31601;48.042;12.240;2022-12-07T04:17:55;12.47;;;10.00;;
12756;SDS011;31601;48.042;12.240;2022-12-07T04:20:23;14.07;;;10.47;;
12756;SDS011;31601;48.042;12.240;2022-12-07T04:22:50;13.50;;;10.90;;
12756;SDS011;31601;48.042;12.240;2022-12-07T04:25:17;13.07;;;10.60;;
12756;SDS011;31601;48.042;12.240;2022-12-07T04:27:43;12.70;;;10.00;;
12756;SDS011;31601;48.042;12.240;2022-12-07T04:30:10;13.70;;;10.40;;
12756;SDS011;31601;48.042;12.240;2022-12-07T04:32:38;15.00;;;11.37;;
12756;SDS011;31601;48.042;12.240;2022-12-07T04:35:07;14.90;;;11.07;;
12756;SDS011;31601;48.042;12.240;2022-12-07T04:37:34;15.33;;;11.27;;
12756;SDS011;31601;48.042;12.240;2022-12-07T04:40:05;11.87;;;10.10;;
12756;SDS011;31601;48.042;12.240;2022-12-07T04:42:36;13.50;;;10.83;;
12756;SDS011;31601;48.042;12.240;2022-12-07T04:45:04;12.73;;;10.90;;
12756;SDS011;31601;48.042;12.240;2022-12-07T04:47:32;13.07;;;10.63;;
12756;SDS011;31601;48.042;12.240;2022-12-07T04:49:59;14.30;;;11.27;;
12756;SDS011;31601;48.042;12.240;2022-12-07T04:52:28;14.47;;;11.63;;
12756;SDS011;31601;48.042;12.240;2022-12-07T04:54:55;21.80;;;15.33;;
12756;SDS011;31601;48.042;12.240;2022-12-07T04:57:22;17.00;;;12.93;;
12756;SDS011;31601;48.042;12.240;2022-12-07T04:59:49;17.37;;;13.03;;
12756;SDS011;31601;48.042;12.240;2022-12-07T05:02:16;15.47;;;11.97;;
12756;SDS011;31601;48.042;12.240;2022-12-07T05:04:44;15.60;;;11.17;;
12756;SDS011;31601;48.042;12.240;2022-12-07T05:07:11;14.97;;;11.00;;
12756;SDS011;31601;48.042;12.240;2022-12-07T05:09:39;15.47;;;12.30;;
12756;SDS011;31601;48.042;12.240;2022-12-07T05:12:06;14.80;;;10.53;;
12756;SDS011;31601;48.042;12.240;2022-12-07T05:14:33;13.03;;;10.43;;
12756;SDS011;31601;48.042;12.240;2022-12-07T05:17:00;12.83;;;10.37;;
12756;SDS011;31601;48.042;12.240;2022-12-07T05:19:27;15.10;;;10.70;;
12756;SDS011;31601;48.042;12.240;2022-12-07T05:21:53;15.40;;;12.23;;
12756;SDS011;31601;48.042;12.240;2022-12-07T05:24:20;16.70;;;12.77;;
12756;SDS011;31601;48.042;12.240;2022-12-07T05:26:48;22.00;;;16.33;;
12756;SDS011;31601;48.042;12.240;2022-12-07T05:29:16;21.47;;;16.47;;
12756;SDS011;31601;48.042;12.240;2022-12-07T05:31:44;17.63;;;13.17;;
12756;SDS011;31601;48.042;12.240;2022-12-07T05:34:11;13.20;;;10.77;;
12756;SDS011;31601;48.042;12.240;2022-12-07T05:36:38;14.70;;;12.00;;
12756;SDS011;31601;48.042;12.240;2022-12-07T05:39:05;14.53;;;12.60;;
12756;SDS011;31601;48.042;12.240;2022-12-07T05:41:32;16.07;;;11.13;;
12756;SDS011;31601;48.042;12.240;2022-12-07T05:44:18;13.27;;;11.13;;
12756;SDS011;31601;48.042;12.240;2022-12-07T05:46:45;18.07;;;12.20;;
12756;SDS011;31601;48.042;12.240;2022-12-07T05:49:12;14.17;;;11.17;;
12756;SDS011;31601;48.042;12.240;2022-12-07T05:51:38;16.13;;;11.73;;
12756;SDS011;31601;48.042;12.240;2022-12-07T05:54:05;15.97;;;12.17;;
12756;SDS011;31601;48.042;12.240;2022-12-07T05:56:32;16.07;;;12.17;;
12756;SDS011;31601;48.042;12.240;2022-12-07T05:58:59;15.07;;;11.47;;
12756;SDS011;31601;48.042;12.240;2022-12-07T06:01:45;13.97;;;11.27;;
12756;SDS011;31601;48.042;12.240;2022-12-07T06:04:12;15.27;;;11.83;;
12756;SDS011;31601;48.042;12.240;2022-12-07T06:06:40;16.70;;;12.47;;
12756;SDS011;31601;48.042;12.240;2022-12-07T06:09:07;15.57;;;11.77;;
12756;SDS011;31601;48.042;12.240;2022-12-07T06:11:34;13.27;;;9.87;;
12756;SDS011;31601;48.042;12.240;2022-12-07T06:14:18;13.90;;;11.03;;
12756;SDS011;31601;48.042;12.240;2022-12-07T06:16:46;13.77;;;10.73;;
12756;SDS011;31601;48.042;12.240;2022-12-07T06:19:13;16.20;;;12.43;;
12756;SDS011;31601;48.042;12.240;2022-12-07T06:21:40;14.40;;;11.63;;
12756;SDS011;31601;48.042;12.240;2022-12-07T06:24:08;16.40;;;12.40;;
12756;SDS011;31601;48.042;12.240;2022-12-07T06:26:37;14.63;;;12.27;;
12756;SDS011;31601;48.042;12.240;2022-12-07T06:29:04;15.07;;;12.60;;
12756;SDS011;31601;48.042;12.240;2022-12-07T06:31:32;15.73;;;12.90;;
12756;SDS011;31601;48.042;12.240;2022-12-07T06:34:00;16.97;;;13.43;;
12756;SDS011;31601;48.042;12.240;2022-12-07T06:36:29;17.50;;;12.20;;
12756;SDS011;31601;48.042;12.240;2022-12-07T06:38:56;23.03;;;12.87;;
12756;SDS011;31601;48.042;12.240;2022-12-07T06:41:23;18.27;;;12.67;;
12756;SDS011;31601;48.042;12.240;2022-12-07T06:43:50;19.33;;;13.47;;
12756;SDS011;31601;48.042;12.240;2022-12-07T06:46:17;19.30;;;15.03;;
12756;SDS011;31601;48.042;12.240;2022-12-07T06:48:46;17.87;;;14.67;;
12756;SDS011;31601;48.042;12.240;2022-12-07T06:51:14;18.27;;;13.70;;
12756;SDS011;31601;48.042;12.240;2022-12-07T06:53:42;18.30;;;14.93;;
12756;SDS011;31601;48.042;12.240;2022-12-07T06:56:08;18.83;;;15.17;;
12756;SDS011;31601;48.042;12.240;2022-12-07T06:58:35;21.77;;;14.87;;
12756;SDS011;31601;48.042;12.240;2022-12-07T07:01:07;19.17;;;13.97;;
12756;SDS011;31601;48.042;12.240;2022-12-07T07:03:37;20.83;;;15.43;;
12756;SDS011;31601;48.042;12.240;2022-12-07T07:06:04;23.70;;;16.83;;
12756;SDS011;31601;48.042;12.240;2022-12-07T07:08:34;24.43;;;17.93;;
12756;SDS011;31601;48.042;12.240;2022-12-07T07:11:01;22.43;;;16.37;;
12756;SDS011;31601;48.042;12.240;2022-12-07T07:13:28;20.37;;;16.60;;
12756;SDS011;31601;48.042;12.240;2022-12-07T07:15:56;20.83;;;15.73;;
12756;SDS011;31601;48.042;12.240;2022-12-07T07:18:23;24.47;;;15.00;;
12756;SDS011;31601;48.042;12.240;2022-12-07T07:20:51;19.33;;;14.47;;
12756;SDS011;31601;48.042;12.240;2022-12-07T07:23:18;17.10;;;13.87;;
12756;SDS011;31601;48.042;12.240;2022-12-07T07:25:46;23.97;;;16.63;;
12756;SDS011;31601;48.042;12.240;2022-12-07T07:28:14;26.50;;;18.47;;
12756;SDS011;31601;48.042;12.240;2022-12-07T07:30:41;27.97;;;21.60;;
12756;SDS011;31601;48.042;12.240;2022-12-07T07:33:09;79.37;;;48.53;;
12756;SDS011;31601;48.042;12.240;2022-12-07T07:35:37;39.60;;;30.80;;
12756;SDS011;31601;48.042;12.240;2022-12-07T07:38:04;32.73;;;24.83;;
12756;SDS011;31601;48.042;12.240;2022-12-07T07:40:32;26.87;;;20.90;;
12756;SDS011;31601;48.042;12.240;2022-12-07T07:43:00;28.27;;;21.00;;
12756;SDS011;31601;48.042;12.240;2022-12-07T07:45:27;24.97;;;19.20;;
12756;SDS011;31601;48.042;12.240;2022-12-07T07:47:54;18.67;;;14.97;;
12756;SDS011;31601;48.042;12.240;2022-12-07T07:50:21;21.03;;;15.60;;
12756;SDS011;31601;48.042;12.240;2022-12-07T07:52:49;51.37;;;22.17;;
12756;SDS011;31601;48.042;12.240;2022-12-07T07:55:16;21.83;;;16.67;;
12756;SDS011;31601;48.042;12.240;2022-12-07T07:57:43;29.70;;;22.43;;
12756;SDS011;31601;48.042;12.240;2022-12-07T08:00:13;39.87;;;26.60;;
12756;SDS011;31601;48.042;12.240;2022-12-07T08:02:41;41.33;;;27.67;;
12756;SDS011;31601;48.042;12.240;2022-12-07T08:05:09;35.13;;;24.80;;
12756;SDS011;31601;48.042;12.240;2022-12-07T08:07:37;44.60;;;29.00;;
12756;SDS011;31601;48.042;12.240;2022-12-07T08:10:04;41.47;;;25.70;;
12756;SDS011;31601;48.042;12.240;2022-12-07T08:12:35;31.93;;;22.20;;
12756;SDS011;31601;48.042;12.240;2022-12-07T08:15:02;30.97;;;19.23;;
12756;SDS011;31601;48.042;12.240;2022-12-07T08:17:31;50.23;;;28.20;;
12756;SDS011;31601;48.042;12.240;2022-12-07T08:19:59;54.03;;;30.50;;
12756;SDS011;31601;48.042;12.240;2022-12-07T08:22:25;67.57;;;37.03;;
12756;SDS011;31601;48.042;12.240;2022-12-07T08:24:52;50.10;;;28.97;;
12756;SDS011;31601;48.042;12.240;2022-12-07T08:27:20;54.77;;;31.77;;
12756;SDS011;31601;48.042;12.240;2022-12-07T08:29:52;41.37;;;23.97;;
12756;SDS011;31601;48.042;12.240;2022-12-07T08:32:18;48.90;;;27.40;;
12756;SDS011;31601;48.042;12.240;2022-12-07T08:34:48;40.90;;;24.07;;
12756;SDS011;31601;48.042;12.240;2022-12-07T08:37:15;61.30;;;28.67;;
12756;SDS011;31601;48.042;12.240;2022-12-07T08:39:41;49.33;;;23.73;;
12756;SDS011;31601;48.042;12.240;2022-12-07T08:42:08;44.77;;;21.60;;
12756;SDS011;31601;48.042;12.240;2022-12-07T08:44:36;49.87;;;25.00;;
12756;SDS011;31601;48.042;12.240;2022-12-07T08:47:04;39.43;;;20.70;;
12756;SDS011;31601;48.042;12.240;2022-12-07T08:49:33;61.13;;;28.67;;
12756;SDS011;31601;48.042;12.240;2022-12-07T08:52:05;62.37;;;27.83;;
12756;SDS011;31601;48.042;12.240;2022-12-07T08:54:32;47.23;;;22.33;;
12756;SDS011;31601;48.042;12.240;2022-12-07T08:57:02;53.77;;;24.00;;
12756;SDS011;31601;48.042;12.240;2022-12-07T08:59:29;59.97;;;26.20;;
12756;SDS011;31601;48.042;12.240;2022-12-07T09:01:57;55.03;;;25.53;;
12756;SDS011;31601;48.042;12.240;2022-12-07T09:04:23;66.17;;;27.57;;
12756;SDS011;31601;48.042;12.240;2022-12-07T09:06:50;57.97;;;24.67;;
12756;SDS011;31601;48.042;12.240;2022-12-07T09:09:21;73.43;;;28.13;;
12756;SDS011;31601;48.042;12.240;2022-12-07T09:11:48;58.50;;;24.43;;
12756;SDS011;31601;48.042;12.240;2022-12-07T09:14:15;36.47;;;22.00;;
12756;SDS011;31601;48.042;12.240;2022-12-07T09:16:42;31.37;;;21.10;;
12756;SDS011;31601;48.042;12.240;2022-12-07T09:19:09;30.87;;;19.50;;
12756;SDS011;31601;48.042;12.240;2022-12-07T09:21:36;30.00;;;19.83;;
12756;SDS011;31601;48.042;12.240;2022-12-07T09:24:03;27.27;;;19.83;;
12756;SDS011;31601;48.042;12.240;2022-12-07T09:26:32;29.43;;;20.73;;
12756;SDS011;31601;48.042;12.240;2022-12-07T09:29:00;30.50;;;20.77;;
12756;SDS011;31601;48.042;12.240;2022-12-07T09:31:28;24.03;;;17.77;;
12756;SDS011;31601;48.042;12.240;2022-12-07T09:33:55;22.20;;;16.37;;
12756;SDS011;31601;48.042;12.240;2022-12-07T09:36:22;26.63;;;17.97;;
12756;SDS011;31601;48.042;12.240;2022-12-07T09:38:49;21.13;;;15.20;;
12756;SDS011;31601;48.042;12.240;2022-12-07T09:41:16;19.97;;;14.97;;
12756;SDS011;31601;48.042;12.240;2022-12-07T09:43:45;19.17;;;13.80;;
12756;SDS011;31601;48.042;12.240;2022-12-07T09:46:13;22.57;;;14.67;;
12756;SDS011;31601;48.042;12.240;2022-12-07T09:48:43;16.87;;;13.17;;
12756;SDS011;31601;48.042;12.240;2022-12-07T09:51:14;16.73;;;12.77;;
12756;SDS011;31601;48.042;12.240;2022-12-07T09:53:43;15.10;;;12.67;;
12756;SDS011;31601;48.042;12.240;2022-12-07T09:56:11;14.93;;;11.40;;
12756;SDS011;31601;48.042;12.240;2022-12-07T09:58:40;17.13;;;12.37;;
12756;SDS011;31601;48.042;12.240;2022-12-07T10:01:12;16.57;;;13.37;;
12756;SDS011;31601;48.042;12.240;2022-12-07T10:03:42;22.10;;;15.80;;
12756;SDS011;31601;48.042;12.240;2022-12-07T10:06:15;16.80;;;14.13;;
12756;SDS011;31601;48.042;12.240;2022-12-07T10:08:43;17.80;;;15.37;;
12756;SDS011;31601;48.042;12.240;2022-12-07T10:11:11;42.57;;;18.47;;
12756;SDS011;31601;48.042;12.240;2022-12-07T10:13:40;15.30;;;12.30;;
12756;SDS011;31601;48.042;12.240;2022-12-07T10:16:25;13.07;;;11.47;;
12756;SDS011;31601;48.042;12.240;2022-12-07T10:19:17;18.30;;;14.33;;
12756;SDS011;31601;48.042;12.240;2022-12-07T10:21:59;16.20;;;12.40;;
12756;SDS011;31601;48.042;12.240;2022-12-07T10:24:27;13.23;;;10.70;;
12756;SDS011;31601;48.042;12.240;2022-12-07T10:26:54;12.87;;;10.83;;
12756;SDS011;31601;48.042;12.240;2022-12-07T10:29:22;12.47;;;10.03;;
12756;SDS011;31601;48.042;12.240;2022-12-07T10:31:53;13.77;;;11.17;;
12756;SDS011;31601;48.042;12.240;2022-12-07T10:34:23;11.33;;;9.80;;
12756;SDS011;31601;48.042;12.240;2022-12-07T10:36:51;12.00;;;10.00;;
12756;SDS011;31601;48.042;12.240;2022-12-07T10:39:19;12.40;;;10.23;;
12756;SDS011;31601;48.042;12.240;2022-12-07T10:41:53;11.37;;;10.13;;
12756;SDS011;31601;48.042;12.240;2022-12-07T10:44:22;15.00;;;11.57;;
12756;SDS011;31601;48.042;12.240;2022-12-07T10:46:57;17.63;;;12.33;;
12756;SDS011;31601;48.042;12.240;2022-12-07T10:52:38;23.30;;;15.80;;
12756;SDS011;31601;48.042;12.240;2022-12-07T10:55:33;12.77;;;10.97;;
12756;SDS011;31601;48.042;12.240;2022-12-07T10:58:14;12.57;;;10.67;;
12756;SDS011;31601;48.042;12.240;2022-12-07T11:00:54;12.23;;;9.57;;
12756;SDS011;31601;48.042;12.240;2022-12-07T11:03:41;13.43;;;10.80;;
12756;SDS011;31601;48.042;12.240;2022-12-07T11:06:21;12.30;;;9.97;;
12756;SDS011;31601;48.042;12.240;2022-12-07T11:08:59;10.97;;;9.57;;
12756;SDS011;31601;48.042;12.240;2022-12-07T11:11:33;11.57;;;10.10;;
12756;SDS011;31601;48.042;12.240;2022-12-07T11:14:05;10.43;;;9.03;;
12756;SDS011;31601;48.042;12.240;2022-12-07T11:16:47;9.80;;;8.80;;
12756;SDS011;31601;48.042;12.240;2022-12-07T11:19:27;10.33;;;9.23;;
12756;SDS011;31601;48.042;12.240;2022-12-07T11:22:07;11.60;;;10.03;;
12756;SDS011;31601;48.042;12.240;2022-12-07T11:24:40;11.80;;;9.70;;
12756;SDS011;31601;48.042;12.240;2022-12-07T11:27:18;13.07;;;9.73;;
12756;SDS011;31601;48.042;12.240;2022-12-07T11:29:53;12.20;;;9.13;;
12756;SDS011;31601;48.042;12.240;2022-12-07T11:32:34;10.50;;;9.40;;
12756;SDS011;31601;48.042;12.240;2022-12-07T11:35:17;13.20;;;9.57;;
12756;SDS011;31601;48.042;12.240;2022-12-07T11:37:57;12.10;;;9.67;;
12756;SDS011;31601;48.042;12.240;2022-12-07T11:40:28;11.87;;;9.10;;
12756;SDS011;31601;48.042;12.240;2022-12-07T11:43:01;12.57;;;9.53;;
12756;SDS011;31601;48.042;12.240;2022-12-07T11:45:32;13.60;;;9.70;;
12756;SDS011;31601;48.042;12.240;2022-12-07T11:48:02;9.87;;;8.73;;
12756;SDS011;31601;48.042;12.240;2022-12-07T11:50:36;12.30;;;9.50;;
12756;SDS011;31601;48.042;12.240;2022-12-07T11:53:10;10.50;;;9.37;;
12756;SDS011;31601;48.042;12.240;2022-12-07T11:55:42;10.53;;;8.87;;
12756;SDS011;31601;48.042;12.240;2022-12-07T11:58:16;12.07;;;9.93;;
12756;SDS011;31601;48.042;12.240;2022-12-07T12:00:51;11.17;;;9.30;;
12756;SDS011;31601;48.042;12.240;2022-12-07T12:03:28;17.67;;;9.67;;
12756;SDS011;31601;48.042;12.240;2022-12-07T12:06:01;22.37;;;10.47;;
12756;SDS011;31601;48.042;12.240;2022-12-07T12:08:29;22.23;;;10.13;;
12756;SDS011;31601;48.042;12.240;2022-12-07T12:11:03;9.37;;;8.30;;
12756;SDS011;31601;48.042;12.240;2022-12-07T12:13:57;19.87;;;9.63;;
12756;SDS011;31601;48.042;12.240;2022-12-07T12:16:50;23.43;;;9.33;;
12756;SDS011;31601;48.042;12.240;2022-12-07T12:19:40;9.97;;;8.80;;
12756;SDS011;31601;48.042;12.240;2022-12-07T12:22:12;10.03;;;8.63;;
12756;SDS011;31601;48.042;12.240;2022-12-07T12:24:43;31.13;;;10.83;;
12756;SDS011;31601;48.042;12.240;2022-12-07T12:27:20;21.57;;;9.70;;
12756;SDS011;31601;48.042;12.240;2022-12-07T12:29:52;11.33;;;8.60;;
12756;SDS011;31601;48.042;12.240;2022-12-07T12:32:21;13.87;;;9.37;;
12756;SDS011;31601;48.042;12.240;2022-12-07T12:34:57;11.83;;;8.97;;
12756;SDS011;31601;48.042;12.240;2022-12-07T12:37:50;16.60;;;9.13;;
12756;SDS011;31601;48.042;12.240;2022-12-07T12:40:40;12.33;;;9.50;;
12756;SDS011;31601;48.042;12.240;2022-12-07T12:49:32;13.23;;;8.40;;
12756;SDS011;31601;48.042;12.240;2022-12-07T12:55:19;15.20;;;8.70;;
12756;SDS011;31601;48.042;12.240;2022-12-07T13:04:21;26.90;;;10.00;;
12756;SDS011;31601;48.042;12.240;2022-12-07T13:06:51;15.23;;;7.90;;
12756;SDS011;31601;48.042;12.240;2022-12-07T13:09:20;37.60;;;9.50;;
12756;SDS011;31601;48.042;12.240;2022-12-07T13:11:56;28.77;;;9.93;;
12756;SDS011;31601;48.042;12.240;2022-12-07T13:23:25;12.40;;;7.47;;
12756;SDS011;31601;48.042;12.240;2022-12-07T13:28:43;17.73;;;8.57;;
12756;SDS011;31601;48.042;12.240;2022-12-07T13:31:23;11.07;;;9.30;;
12756;SDS011;31601;48.042;12.240;2022-12-07T13:33:58;20.63;;;11.30;;
12756;SDS011;31601;48.042;12.240;2022-12-07T13:36:26;28.97;;;16.47;;
12756;SDS011;31601;48.042;12.240;2022-12-07T13:38:55;25.83;;;10.93;;
12756;SDS011;31601;48.042;12.240;2022-12-07T13:41:23;39.30;;;10.10;;
12756;SDS011;31601;48.042;12.240;2022-12-07T13:44:02;16.87;;;8.60;;
12756;SDS011;31601;48.042;12.240;2022-12-07T13:46:41;11.53;;;8.77;;
12756;SDS011;31601;48.042;12.240;2022-12-07T13:49:17;12.27;;;9.00;;
12756;SDS011;31601;48.042;12.240;2022-12-07T13:51:47;29.87;;;8.70;;
12756;SDS011;31601;48.042;12.240;2022-12-07T13:54:15;32.00;;;9.60;;
12756;SDS011;31601;48.042;12.240;2022-12-07T13:56:43;9.27;;;7.73;;
12756;SDS011;31601;48.042;12.240;2022-12-07T13:59:14;12.10;;;7.53;;
12756;SDS011;31601;48.042;12.240;2022-12-07T14:01:44;21.77;;;10.00;;
12756;SDS011;31601;48.042;12.240;2022-12-07T14:04:17;12.17;;;7.63;;
12756;SDS011;31601;48.042;12.240;2022-12-07T14:06:49;14.23;;;7.90;;
12756;SDS011;31601;48.042;12.240;2022-12-07T14:09:17;10.50;;;8.10;;
12756;SDS011;31601;48.042;12.240;2022-12-07T14:11:46;11.80;;;7.40;;
12756;SDS011;31601;48.042;12.240;2022-12-07T14:14:17;17.03;;;9.70;;
12756;SDS011;31601;48.042;12.240;2022-12-07T14:19:42;21.50;;;9.23;;
12756;SDS011;31601;48.042;12.240;2022-12-07T14:25:19;16.37;;;8.43;;
12756;SDS011;31601;48.042;12.240;2022-12-07T14:27:48;13.07;;;7.93;;
12756;SDS011;31601;48.042;12.240;2022-12-07T14:30:20;11.10;;;8.27;;
12756;SDS011;31601;48.042;12.240;2022-12-07T14:32:48;16.20;;;7.53;;
12756;SDS011;31601;48.042;12.240;2022-12-07T14:35:19;14.53;;;8.33;;
12756;SDS011;31601;48.042;12.240;2022-12-07T14:37:48;37.00;;;9.90;;
12756;SDS011;31601;48.042;12.240;2022-12-07T14:40:16;19.90;;;8.90;;
12756;SDS011;31601;48.042;12.240;2022-12-07T14:42:44;15.30;;;8.10;;
12756;SDS011;31601;48.042;12.240;2022-12-07T14:45:15;17.93;;;7.77;;
12756;SDS011;31601;48.042;12.240;2022-12-07T14:47:44;13.53;;;9.57;;
12756;SDS011;31601;48.042;12.240;2022-12-07T14:50:14;12.37;;;8.70;;
12756;SDS011;31601;48.042;12.240;2022-12-07T14:52:44;11.17;;;8.20;;
12756;SDS011;31601;48.042;12.240;2022-12-07T14:55:16;16.90;;;9.50;;
12756;SDS011;31601;48.042;12.240;2022-12-07T14:57:48;16.53;;;8.93;;
12756;SDS011;31601;48.042;12.240;2022-12-07T15:00:16;25.20;;;10.33;;
12756;SDS011;31601;48.042;12.240;2022-12-07T15:02:46;14.70;;;9.50;;
12756;SDS011;31601;48.042;12.240;2022-12-07T15:05:16;17.23;;;9.37;;
12756;SDS011;31601;48.042;12.240;2022-12-07T15:07:44;14.60;;;9.00;;
12756;SDS011;31601;48.042;12.240;2022-12-07T15:10:13;19.77;;;9.70;;
12756;SDS011;31601;48.042;12.240;2022-12-07T15:12:43;18.27;;;9.27;;